Time;durP1;ratioP1;P1;durP2;ratioP2;P2;SDS_P1;SDS_P2;PMS_P1;PMS_P2;Temp;Humidity;BMP_temperature;BMP_pressure;BME280_temperature;BME280_humidity;BME280_pressure;Samples;Min_cycle;Max_cycle;Signal;HPM_P1;HPM_P2
2023/01/21 07:31:47;;;;;;;22.23;13.13;;;13.90;55.80;;;;;;4821293;29;20865;-74
2023/01/21 07:34:13;;;;;;;15.77;11.90;;;14.00;55.20;;;;;;4825442;29;20046;-78
2023/01/21 07:36:38;;;;;;;19.40;11.35;;;14.10;55.20;;;;;;4826032;29;20038;-76
2023/01/21 07:39:04;;;;;;;18.27;11.20;;;14.10;55.20;;;;;;4825139;29;20061;-74
2023/01/21 07:41:30;;;;;;;22.27;11.45;;;14.10;55.40;;;;;;4820424;29;20455;-75
2023/01/21 07:43:55;;;;;;;15.45;10.02;;;14.20;55.70;;;;;;4821832;29;20046;-76
2023/01/21 07:46:22;;;;;;;17.42;9.55;;;14.20;56.50;;;;;;4809669;29;20058;-75
2023/01/21 07:48:49;;;;;;;17.55;9.25;;;14.30;56.20;;;;;;4826063;29;20118;-77
2023/01/21 07:51:15;;;;;;;12.65;7.07;;;14.30;56.30;;;;;;4808695;29;20069;-77
2023/01/21 07:53:41;;;;;;;13.73;7.32;;;14.20;56.50;;;;;;4825590;29;20050;-77
2023/01/21 07:56:09;;;;;;;11.30;6.68;;;14.20;56.70;;;;;;4836563;29;20051;-77
2023/01/21 07:58:35;;;;;;;19.15;7.53;;;14.20;56.90;;;;;;4824674;29;20049;-77
2023/01/21 08:01:08;;;;;;;10.90;5.53;;;14.20;57.00;;;;;;4829651;29;20129;-77
2023/01/21 08:03:35;;;;;;;15.90;5.00;;;14.30;57.10;;;;;;4816359;29;20038;-75
2023/01/21 08:06:00;;;;;;;15.30;5.25;;;14.40;57.00;;;;;;4829286;29;20127;-75
2023/01/21 08:08:26;;;;;;;9.05;4.45;;;14.40;56.80;;;;;;4829383;29;20046;-78
2023/01/21 08:10:53;;;;;;;9.90;5.53;;;14.50;56.70;;;;;;4829465;29;20050;-77
2023/01/21 08:13:19;;;;;;;14.77;7.55;;;14.40;56.60;;;;;;4812786;29;20048;-77
2023/01/21 08:15:52;;;;;;;15.00;5.80;;;14.40;57.10;;;;;;4811468;29;20097;-76
2023/01/21 08:18:19;;;;;;;11.32;5.22;;;14.40;56.90;;;;;;4810347;29;20058;-77
2023/01/21 08:20:44;;;;;;;15.43;5.60;;;14.40;56.80;;;;;;4811097;29;20058;-79
2023/01/21 08:23:10;;;;;;;14.85;11.25;;;14.40;56.80;;;;;;4824957;29;20054;-77
2023/01/21 08:25:37;;;;;;;21.20;14.98;;;14.40;55.60;;;;;;4810449;29;20358;-77
2023/01/21 08:28:05;;;;;;;24.15;18.10;;;14.30;53.50;;;;;;4795882;29;20077;-77
2023/01/21 08:30:31;;;;;;;24.60;18.25;;;14.30;51.40;;;;;;4826351;29;20489;-77
2023/01/21 08:32:56;;;;;;;22.73;17.92;;;14.20;49.70;;;;;;4812393;29;20062;-78
2023/01/21 08:35:22;;;;;;;25.67;17.67;;;14.20;49.10;;;;;;4813103;29;20127;-77
2023/01/21 08:37:48;;;;;;;25.75;16.77;;;14.20;50.10;;;;;;4828919;29;20354;-76
2023/01/21 08:40:14;;;;;;;27.00;16.77;;;14.10;49.70;;;;;;4828842;29;20065;-77
2023/01/21 08:42:40;;;;;;;27.85;16.33;;;14.20;50.70;;;;;;4827537;29;20451;-79
2023/01/21 08:45:07;;;;;;;28.45;14.50;;;14.20;51.90;;;;;;4813212;29;20054;-76
2023/01/21 08:47:32;;;;;;;24.65;13.52;;;14.30;52.70;;;;;;4812737;29;20050;-76
2023/01/21 08:49:58;;;;;;;32.58;13.90;;;14.30;53.20;;;;;;4812763;29;20065;-75
2023/01/21 08:52:24;;;;;;;22.17;12.98;;;14.40;53.60;;;;;;4819159;29;20058;-78
2023/01/21 08:54:52;;;;;;;24.75;13.15;;;14.40;53.70;;;;;;4809759;29;20078;-77
2023/01/21 08:57:18;;;;;;;32.65;12.57;;;14.40;54.40;;;;;;4809323;29;20119;-76
2023/01/21 08:59:44;;;;;;;23.85;11.55;;;14.50;54.30;;;;;;4810319;29;20047;-75
2023/01/21 09:02:11;;;;;;;24.83;11.48;;;14.50;54.30;;;;;;4816330;29;20042;-74
2023/01/21 09:04:37;;;;;;;17.42;10.80;;;14.60;54.40;;;;;;4828565;29;20069;-76
2023/01/21 09:07:02;;;;;;;21.35;9.90;;;14.60;54.70;;;;;;4812632;29;20374;-76
2023/01/21 09:09:28;;;;;;;25.17;10.07;;;14.70;55.00;;;;;;4827922;29;20046;-73
2023/01/21 09:12:00;;;;;;;20.60;9.38;;;14.70;55.00;;;;;;4823492;29;20050;-79
2023/01/21 09:14:26;;;;;;;22.20;10.43;;;14.60;55.00;;;;;;4809522;29;20443;-74
2023/01/21 09:16:54;;;;;;;26.65;11.00;;;14.60;55.10;;;;;;4810196;29;20050;-75
2023/01/21 09:19:29;;;;;;;25.25;10.23;;;14.60;55.10;;;;;;4810018;29;20054;-75
2023/01/21 09:21:55;;;;;;;28.60;9.88;;;14.50;54.80;;;;;;4813905;29;20038;-75
2023/01/21 09:24:24;;;;;;;20.40;9.98;;;14.50;54.90;;;;;;4828115;29;20061;-75
2023/01/21 09:26:49;;;;;;;18.63;9.52;;;14.40;54.90;;;;;;4812340;29;20418;-74
2023/01/21 09:29:15;;;;;;;17.58;9.07;;;14.30;55.00;;;;;;4827857;29;20172;-76
2023/01/21 09:31:41;;;;;;;16.83;7.93;;;14.30;55.00;;;;;;4827194;29;20206;-74
2023/01/21 09:34:09;;;;;;;16.67;9.23;;;14.30;55.10;;;;;;4812300;29;20062;-76
2023/01/21 09:36:35;;;;;;;16.35;9.52;;;14.30;55.40;;;;;;4828207;29;20358;-77
2023/01/21 09:39:04;;;;;;;17.65;8.65;;;14.10;54.80;;;;;;4811736;29;20061;-75
2023/01/21 09:41:47;;;;;;;14.38;7.70;;;14.20;55.80;;;;;;4807862;29;20046;-76
2023/01/21 09:44:35;;;;;;;14.27;6.55;;;14.20;55.90;;;;;;4809265;29;20127;-77
2023/01/21 09:47:12;;;;;;;12.68;7.05;;;14.30;56.20;;;;;;4807958;29;20042;-78
2023/01/21 09:49:40;;;;;;;12.20;5.63;;;14.30;56.10;;;;;;4807577;29;20050;-76
2023/01/21 09:52:15;;;;;;;12.43;5.38;;;14.40;56.20;;;;;;4813232;29;20361;-76
2023/01/21 09:54:42;;;;;;;13.38;4.57;;;14.40;56.20;;;;;;4827196;29;20046;-75
2023/01/21 09:57:40;;;;;;;11.73;5.22;;;14.50;56.40;;;;;;4826103;29;20087;-77
2023/01/21 10:00:44;;;;;;;10.30;4.80;;;14.50;56.90;;;;;;4826156;29;20056;-78
2023/01/21 10:03:20;;;;;;;13.32;4.82;;;14.50;57.50;;;;;;4813677;29;20050;-74
2023/01/21 10:05:52;;;;;;;10.07;4.80;;;14.60;57.50;;;;;;4809409;29;20050;-74
2023/01/21 10:08:32;;;;;;;14.82;4.75;;;14.60;57.60;;;;;;4808162;29;20074;-74
2023/01/21 10:11:21;;;;;;;13.30;5.45;;;14.70;57.80;;;;;;4808219;29;20436;-74
2023/01/21 10:14:08;;;;;;;15.15;6.97;;;14.70;57.80;;;;;;4809140;29;20521;-72
2023/01/21 10:16:55;;;;;;;25.55;6.43;;;14.70;57.90;;;;;;4809182;29;20355;-73
2023/01/21 10:19:56;;;;;;;17.33;5.32;;;14.80;58.30;;;;;;4807914;29;20069;-74
2023/01/21 10:22:26;;;;;;;13.73;5.25;;;14.80;58.50;;;;;;4792421;29;20509;-73
2023/01/21 10:25:12;;;;;;;16.63;5.18;;;14.90;58.70;;;;;;4827172;29;20057;-72
2023/01/21 10:27:41;;;;;;;10.65;4.57;;;15.00;58.80;;;;;;4827179;29;20141;-74
2023/01/21 10:30:27;;;;;;;16.27;4.60;;;15.00;58.80;;;;;;4827003;29;20062;-75
2023/01/21 10:32:55;;;;;;;13.18;6.60;;;15.10;59.40;;;;;;4818284;29;20475;-75
2023/01/21 10:35:38;;;;;;;13.90;8.63;;;15.10;58.80;;;;;;4823369;29;20107;-75
2023/01/21 10:38:17;;;;;;;22.45;10.98;;;15.20;57.30;;;;;;4827008;29;20117;-74
2023/01/21 10:40:58;;;;;;;18.42;10.88;;;15.20;55.60;;;;;;4810582;29;20050;-73
2023/01/21 10:43:42;;;;;;;18.00;11.05;;;15.30;54.60;;;;;;4814808;29;20104;-73
2023/01/21 10:46:25;;;;;;;16.65;10.63;;;15.30;54.90;;;;;;4808830;29;20065;-75
2023/01/21 10:49:07;;;;;;;18.65;9.98;;;15.40;55.50;;;;;;4808055;29;20533;-78
2023/01/21 10:51:45;;;;;;;16.38;9.13;;;15.40;56.30;;;;;;4808748;29;20351;-74
2023/01/21 10:54:19;;;;;;;15.02;8.80;;;15.40;56.30;;;;;;4825335;29;20347;-72
2023/01/21 10:56:52;;;;;;;21.98;9.75;;;15.40;56.60;;;;;;4810732;29;20169;-73
2023/01/21 10:59:24;;;;;;;13.70;8.13;;;15.50;56.90;;;;;;4810961;29;20054;-72
2023/01/21 11:02:00;;;;;;;16.17;8.82;;;15.50;57.10;;;;;;4826565;29;20323;-72
2023/01/21 11:04:30;;;;;;;18.83;8.57;;;15.50;57.20;;;;;;4808662;29;20133;-78
2023/01/21 11:07:04;;;;;;;21.23;8.48;;;15.50;57.60;;;;;;4792304;29;20126;-76
2023/01/21 11:09:48;;;;;;;20.15;10.60;;;15.60;57.60;;;;;;4808123;29;20087;-76
2023/01/21 11:12:20;;;;;;;25.08;11.63;;;15.60;56.80;;;;;;4780148;29;20043;-75
2023/01/21 11:14:55;;;;;;;21.40;12.23;;;15.50;55.20;;;;;;4825733;29;20373;-73
2023/01/21 11:17:35;;;;;;;18.98;11.57;;;15.50;54.40;;;;;;4826777;29;20060;-72
2023/01/21 11:20:05;;;;;;;17.35;11.05;;;15.40;54.50;;;;;;4826330;29;20046;-71
2023/01/21 11:22:31;;;;;;;26.08;11.35;;;15.40;55.20;;;;;;4821032;29;20055;-73
2023/01/21 11:24:59;;;;;;;28.95;12.23;;;15.30;55.40;;;;;;4807013;29;20054;-72
2023/01/21 11:27:27;;;;;;;17.40;11.13;;;15.20;55.50;;;;;;4814102;29;20054;-73
2023/01/21 11:29:53;;;;;;;20.27;10.45;;;15.20;55.80;;;;;;4826003;29;20047;-72
2023/01/21 11:32:21;;;;;;;15.27;9.10;;;15.00;56.10;;;;;;4806913;29;20135;-72
2023/01/21 11:34:54;;;;;;;18.83;9.77;;;15.00;56.60;;;;;;4808001;29;20080;-72
2023/01/21 11:37:23;;;;;;;14.10;8.20;;;14.90;57.00;;;;;;4821156;29;20061;-71
2023/01/21 11:40:23;;;;;;;15.32;7.65;;;14.90;57.30;;;;;;4810034;29;20495;-74
2023/01/21 11:42:52;;;;;;;11.35;6.80;;;14.80;57.40;;;;;;4813877;29;20062;-72
2023/01/21 11:45:30;;;;;;;8.98;6.22;;;14.80;57.50;;;;;;4807453;29;20142;-72
2023/01/21 11:47:58;;;;;;;12.35;6.90;;;14.70;57.40;;;;;;4808624;29;20321;-75
2023/01/21 11:50:39;;;;;;;12.13;6.07;;;14.60;57.70;;;;;;4823622;29;20525;-71
2023/01/21 11:53:12;;;;;;;9.70;5.38;;;14.60;57.90;;;;;;4817890;29;20058;-71
2023/01/21 11:55:55;;;;;;;10.48;4.95;;;14.50;57.90;;;;;;4807288;29;20086;-72
2023/01/21 11:58:24;;;;;;;8.95;4.80;;;14.50;57.70;;;;;;4807965;29;20100;-71
2023/01/21 12:00:53;;;;;;;6.75;4.70;;;14.40;57.90;;;;;;4815309;29;20065;-72
2023/01/21 12:03:30;;;;;;;8.45;4.45;;;14.40;58.10;;;;;;4800856;29;20458;-72
2023/01/21 12:05:57;;;;;;;7.88;3.97;;;14.30;58.30;;;;;;4821029;29;20096;-70
2023/01/21 12:08:25;;;;;;;8.55;4.40;;;14.30;60.00;;;;;;4807451;29;20055;-76
2023/01/21 12:10:55;;;;;;;9.93;4.32;;;14.40;61.40;;;;;;4810257;29;20133;-73
2023/01/21 12:13:49;;;;;;;7.25;3.88;;;14.40;61.80;;;;;;4825126;29;20499;-74
2023/01/21 12:16:33;;;;;;;5.75;2.97;;;14.50;60.40;;;;;;4823146;29;20050;-70
2023/01/21 12:19:17;;;;;;;;;;;14.50;59.70;;;;;;4793176;29;20363;-74
2023/01/21 12:21:58;;;;;;;3.50;2.88;;;14.50;59.90;;;;;;4824447;29;19935;-76
2023/01/21 12:24:59;;;;;;;3.67;2.75;;;14.50;61.10;;;;;;4824517;29;20058;-72
2023/01/21 12:28:05;;;;;;;5.90;3.10;;;14.50;59.70;;;;;;4804804;29;20066;-75
2023/01/21 12:30:45;;;;;;;5.18;2.60;;;14.50;60.10;;;;;;4806288;29;20495;-73
2023/01/21 12:33:29;;;;;;;3.63;2.13;;;14.50;59.70;;;;;;4822742;29;20050;-72
2023/01/21 12:36:03;;;;;;;7.00;2.30;;;14.50;59.10;;;;;;4823545;29;20471;-73
2023/01/21 12:38:38;;;;;;;;;;;14.40;58.90;;;;;;4808975;29;20054;-71
2023/01/21 12:41:23;;;;;;;4.35;2.15;;;14.30;58.50;;;;;;4823403;29;20284;-72
2023/01/21 12:43:55;;;;;;;3.10;1.92;;;14.20;59.00;;;;;;4825997;29;20118;-71
2023/01/21 12:46:34;;;;;;;5.65;1.98;;;14.10;59.30;;;;;;4813006;29;20366;-72
2023/01/21 12:49:21;;;;;;;3.72;1.77;;;14.10;59.20;;;;;;4812739;29;20099;-73
2023/01/21 12:52:02;;;;;;;6.40;2.28;;;14.00;59.10;;;;;;4828512;29;20110;-73
2023/01/21 12:54:45;;;;;;;4.53;1.83;;;14.00;59.50;;;;;;4829030;29;20133;-74
2023/01/21 12:57:19;;;;;;;4.93;2.10;;;13.90;59.10;;;;;;4827522;29;20054;-74
2023/01/21 13:00:01;;;;;;;7.85;2.30;;;13.90;59.50;;;;;;4828489;29;20054;-72
2023/01/21 13:02:48;;;;;;;3.88;2.13;;;13.80;59.30;;;;;;4811978;29;20082;-72
2023/01/21 13:05:28;;;;;;;4.90;2.10;;;13.80;59.40;;;;;;4810695;29;20062;-71
2023/01/21 13:08:08;;;;;;;4.85;2.10;;;13.80;59.50;;;;;;4810650;29;20051;-74
2023/01/21 13:10:41;;;;;;;5.53;2.75;;;13.70;59.20;;;;;;4810436;29;20356;-76
2023/01/21 13:13:21;;;;;;;2.80;2.27;;;13.70;59.70;;;;;;4814290;29;20049;-73
2023/01/21 13:15:52;;;;;;;3.67;2.15;;;13.70;59.50;;;;;;4812741;29;20462;-75
2023/01/21 13:18:40;;;;;;;23.45;2.38;;;13.60;60.20;;;;;;4828585;29;20529;-73
2023/01/21 13:21:27;;;;;;;3.92;2.20;;;13.60;59.50;;;;;;4827366;29;20535;-73
2023/01/21 13:24:14;;;;;;;4.93;2.20;;;13.60;59.80;;;;;;4828423;29;20062;-73
2023/01/21 13:26:58;;;;;;;3.58;1.98;;;13.50;59.90;;;;;;4828014;29;20065;-70
2023/01/21 13:29:36;;;;;;;8.35;2.30;;;13.50;59.90;;;;;;4824468;29;20065;-72
2023/01/21 13:32:37;;;;;;;7.40;2.30;;;13.40;59.60;;;;;;4827133;29;20210;-72
2023/01/21 13:35:18;;;;;;;5.93;2.30;;;13.40;59.50;;;;;;4795964;29;20500;-72
2023/01/21 13:37:53;;;;;;;7.57;2.17;;;13.40;59.40;;;;;;4812255;29;20065;-73
2023/01/21 13:40:36;;;;;;;11.23;2.15;;;13.50;59.60;;;;;;4828000;29;20063;-70
2023/01/21 13:43:18;;;;;;;10.13;2.45;;;13.60;60.00;;;;;;4827367;29;20062;-71
2023/01/21 13:46:13;;;;;;;14.70;2.33;;;13.70;59.90;;;;;;4809506;29;20055;-73
2023/01/21 13:48:57;;;;;;;8.25;2.08;;;13.90;60.10;;;;;;4778808;29;20054;-72
2023/01/21 13:52:00;;;;;;;12.23;1.83;;;14.10;60.40;;;;;;4842636;29;20129;-71
2023/01/21 13:55:09;;;;;;;8.52;1.95;;;14.20;60.30;;;;;;4829606;29;20057;-73
2023/01/21 13:57:54;;;;;;;8.10;1.60;;;14.40;60.40;;;;;;4808960;29;20068;-74
2023/01/21 14:00:30;;;;;;;15.77;3.33;;;14.40;59.10;;;;;;4829393;29;20441;-69
2023/01/21 14:03:01;;;;;;;10.85;3.40;;;14.40;61.30;;;;;;4808985;29;20050;-71
2023/01/21 14:05:49;;;;;;;11.05;3.22;;;14.50;59.40;;;;;;4827721;29;20050;-71
2023/01/21 14:08:24;;;;;;;9.57;3.05;;;14.50;58.90;;;;;;4827582;29;20362;-77
2023/01/21 14:11:05;;;;;;;7.47;2.60;;;14.60;59.30;;;;;;4827370;29;20042;-72
2023/01/21 14:13:54;;;;;;;15.13;3.38;;;14.70;59.70;;;;;;4826641;29;20081;-72
2023/01/21 14:16:43;;;;;;;14.73;3.67;;;14.80;60.50;;;;;;4823661;29;20042;-72
2023/01/21 14:19:23;;;;;;;12.75;4.15;;;14.80;61.40;;;;;;4819019;29;20054;-72
2023/01/21 14:22:01;;;;;;;14.52;3.47;;;14.90;61.90;;;;;;4826924;29;20478;-74
2023/01/21 14:24:45;;;;;;;14.80;3.65;;;15.10;62.10;;;;;;4826080;29;20051;-71
2023/01/21 14:27:38;;;;;;;15.30;3.20;;;15.20;62.50;;;;;;4826734;29;20799;-73
2023/01/21 14:30:42;;;;;;;13.52;3.30;;;15.20;62.90;;;;;;4827412;29;20062;-73
2023/01/21 14:33:07;;;;;;;22.08;3.90;;;15.30;63.50;;;;;;4773903;30;20477;-73
2023/01/21 14:35:55;;;;;;;10.82;3.15;;;15.30;63.30;;;;;;4794563;29;20065;-74
2023/01/21 14:38:39;;;;;;;13.57;2.88;;;15.30;63.60;;;;;;4793783;29;20054;-75
2023/01/21 14:42:15;;;;;;;11.52;2.67;;;15.30;63.10;;;;;;5133481;27;20370;-73
2023/01/21 14:44:48;;;;;;;8.18;2.40;;;15.30;63.30;;;;;;5095394;28;20054;-74
2023/01/21 14:47:17;;;;;;;10.82;2.22;;;15.40;63.30;;;;;;5073670;28;20534;-72
2023/01/21 14:49:47;;;;;;;11.85;3.03;;;15.40;63.30;;;;;;5057139;28;20063;-73
2023/01/21 14:52:17;;;;;;;16.58;2.85;;;15.40;63.10;;;;;;5087419;28;20056;-73
2023/01/21 14:54:45;;;;;;;13.07;2.50;;;15.50;63.10;;;;;;5056410;28;20401;-73
2023/01/21 14:57:24;;;;;;;8.27;2.10;;;15.60;63.00;;;;;;5090706;28;20059;-71
2023/01/21 14:59:52;;;;;;;7.88;2.33;;;15.60;60.50;;;;;;5089971;28;20058;-71
2023/01/21 15:02:30;;;;;;;13.70;2.55;;;15.60;57.50;;;;;;5073054;28;20148;-73
2023/01/21 15:05:20;;;;;;;10.55;2.05;;;15.50;55.90;;;;;;5090039;28;20392;-72
2023/01/21 15:07:49;;;;;;;9.55;2.42;;;15.60;55.60;;;;;;5056414;28;20525;-72
2023/01/21 15:10:25;;;;;;;7.70;1.95;;;15.60;56.00;;;;;;5080209;28;20140;-73
2023/01/21 15:13:01;;;;;;;9.10;1.73;;;15.70;56.00;;;;;;5077482;28;20227;-71
2023/01/21 15:15:35;;;;;;;3.90;1.25;;;15.70;56.40;;;;;;5072399;28;20052;-74
2023/01/21 15:18:23;;;;;;;8.35;2.00;;;15.70;56.80;;;;;;5098439;28;20132;-71
2023/01/21 15:20:50;;;;;;;8.75;1.88;;;15.70;57.00;;;;;;5084807;28;20358;-71
2023/01/21 15:23:36;;;;;;;9.90;1.35;;;15.70;57.20;;;;;;5099093;28;20082;-72
2023/01/21 15:26:11;;;;;;;7.18;1.40;;;15.80;57.50;;;;;;5091781;28;20040;-72
2023/01/21 15:28:44;;;;;;;4.50;1.45;;;15.80;57.70;;;;;;5091928;28;20488;-72
2023/01/21 15:31:40;;;;;;;8.77;1.40;;;15.90;58.00;;;;;;5075966;28;20051;-70
2023/01/21 15:34:18;;;;;;;6.63;1.13;;;15.90;58.10;;;;;;5086206;28;20067;-70
2023/01/21 15:36:51;;;;;;;6.40;1.30;;;15.90;58.40;;;;;;5091562;28;20037;-72
2023/01/21 15:39:27;;;;;;;;;;;16.00;59.00;;;;;;5091896;28;20457;-71
2023/01/21 15:42:03;;;;;;;8.48;1.52;;;15.90;58.90;;;;;;5053989;28;19924;-71
2023/01/21 15:45:10;;;;;;;7.60;1.35;;;16.00;59.30;;;;;;5071132;28;20461;-72
2023/01/21 15:48:08;;;;;;;5.15;1.40;;;16.00;59.80;;;;;;5037836;28;20048;-73
2023/01/21 15:50:55;;;;;;;4.30;1.20;;;16.10;60.20;;;;;;5077263;28;20094;-74
2023/01/21 15:53:27;;;;;;;6.68;1.38;;;16.10;60.40;;;;;;5065745;28;20095;-72
2023/01/21 15:56:05;;;;;;;10.52;1.70;;;16.10;60.40;;;;;;5043767;28;20052;-74
2023/01/21 15:58:48;;;;;;;7.38;1.40;;;16.10;60.70;;;;;;5067656;28;20044;-76
2023/01/21 16:01:32;;;;;;;4.80;1.00;;;16.10;61.00;;;;;;5076565;28;20145;-74
2023/01/21 16:04:20;;;;;;;8.95;1.50;;;16.20;61.10;;;;;;5077549;28;20039;-76
2023/01/21 16:07:10;;;;;;;8.20;1.48;;;16.20;61.40;;;;;;5043157;28;20051;-74
2023/01/21 16:10:07;;;;;;;4.88;1.17;;;16.20;61.70;;;;;;5039906;28;20081;-75
2023/01/21 16:12:40;;;;;;;9.60;1.48;;;16.20;62.10;;;;;;5057272;28;20040;-74
2023/01/21 16:15:24;;;;;;;10.82;1.67;;;16.20;62.20;;;;;;5057359;28;20136;-73
2023/01/21 16:17:59;;;;;;;13.60;1.30;;;16.10;62.40;;;;;;5056880;28;20041;-71
2023/01/21 16:20:25;;;;;;;5.47;1.50;;;16.20;62.40;;;;;;5039403;28;20053;-75
2023/01/21 16:22:54;;;;;;;10.98;2.22;;;16.20;62.40;;;;;;5056418;28;20106;-74
2023/01/21 16:25:23;;;;;;;8.68;2.45;;;16.20;62.30;;;;;;5057086;28;20087;-74
2023/01/21 16:27:51;;;;;;;9.77;1.60;;;16.20;62.30;;;;;;5039506;28;20452;-74
2023/01/21 16:30:32;;;;;;;9.07;1.40;;;16.20;62.40;;;;;;5057862;28;20052;-75
2023/01/21 16:33:12;;;;;;;8.32;2.03;;;16.20;62.60;;;;;;5057196;28;20040;-75
2023/01/21 16:35:42;;;;;;;8.23;2.00;;;16.20;62.60;;;;;;5057034;28;20124;-74
2023/01/21 16:38:14;;;;;;;8.68;2.50;;;16.20;62.50;;;;;;5057298;28;20102;-73
2023/01/21 16:40:40;;;;;;;5.18;1.85;;;16.10;62.60;;;;;;5065689;28;20471;-76
2023/01/21 16:43:23;;;;;;;11.23;2.22;;;16.10;62.50;;;;;;5076961;28;20063;-75
2023/01/21 16:45:56;;;;;;;10.48;2.33;;;16.10;62.70;;;;;;5076333;28;20040;-75
2023/01/21 16:48:25;;;;;;;8.60;2.13;;;16.00;62.80;;;;;;5076041;28;20485;-73
2023/01/21 16:50:57;;;;;;;11.43;2.58;;;16.00;63.00;;;;;;5059525;28;20044;-73
2023/01/21 16:53:23;;;;;;;12.98;2.42;;;15.90;61.70;;;;;;5075014;28;20135;-76
2023/01/21 16:55:53;;;;;;;9.70;2.20;;;15.90;63.30;;;;;;5075548;28;20063;-75
2023/01/21 16:58:28;;;;;;;5.85;2.50;;;15.80;63.10;;;;;;5076397;28;20044;-76
2023/01/21 17:01:05;;;;;;;10.10;4.13;;;15.80;63.00;;;;;;5075468;28;20046;-76
2023/01/21 17:03:31;;;;;;;8.52;3.28;;;15.70;60.00;;;;;;5075666;28;20044;-75
2023/01/21 17:06:00;;;;;;;7.30;3.35;;;15.10;58.30;;;;;;5080091;28;20044;-75
2023/01/21 17:08:27;;;;;;;13.02;2.97;;;14.50;59.40;;;;;;5096285;28;20044;-75
2023/01/21 17:11:00;;;;;;;10.25;3.60;;;14.00;60.90;;;;;;5079293;28;20120;-77
2023/01/21 17:13:28;;;;;;;9.07;3.17;;;13.70;61.60;;;;;;5096647;28;20502;-76
2023/01/21 17:16:00;;;;;;;9.07;3.40;;;13.70;61.90;;;;;;5096520;28;20036;-72
2023/01/21 17:18:32;;;;;;;8.52;3.58;;;13.90;61.50;;;;;;5096015;28;20040;-74
2023/01/21 17:21:04;;;;;;;5.53;3.08;;;14.00;61.20;;;;;;5096350;28;20055;-74
2023/01/21 17:23:37;;;;;;;11.52;3.45;;;14.10;61.00;;;;;;5096270;28;20043;-74
2023/01/21 17:26:07;;;;;;;11.23;3.03;;;14.20;60.90;;;;;;5096589;28;20362;-74
2023/01/21 17:28:38;;;;;;;8.15;3.08;;;14.30;60.80;;;;;;5096256;28;20408;-74
2023/01/21 17:31:43;;;;;;;4.05;2.47;;;14.40;60.90;;;;;;5081527;28;20055;-76
2023/01/21 17:34:20;;;;;;;6.00;2.45;;;14.40;60.30;;;;;;5074072;28;20352;-76
2023/01/21 17:36:49;;;;;;;6.18;2.50;;;14.40;60.40;;;;;;5058066;28;20543;-75
2023/01/21 17:39:43;;;;;;;10.50;3.05;;;14.40;60.40;;;;;;5075700;28;20032;-75
2023/01/21 17:42:20;;;;;;;4.45;2.65;;;14.50;60.30;;;;;;5075264;28;20522;-75
2023/01/21 17:44:56;;;;;;;12.48;3.05;;;14.40;60.20;;;;;;5075699;28;20131;-74
2023/01/21 17:47:27;;;;;;;5.85;2.30;;;14.50;60.40;;;;;;5075835;28;20064;-75
2023/01/21 17:50:15;;;;;;;5.13;1.88;;;14.40;60.40;;;;;;5057883;28;20355;-74
2023/01/21 17:52:41;;;;;;;7.13;2.10;;;14.30;60.20;;;;;;5075633;28;20058;-73
2023/01/21 17:55:21;;;;;;;4.03;1.90;;;14.30;60.50;;;;;;5077526;28;20119;-75
2023/01/21 17:57:47;;;;;;;5.25;2.45;;;14.30;60.50;;;;;;5095566;28;20051;-75
2023/01/21 18:00:34;;;;;;;5.93;2.25;;;14.30;60.60;;;;;;5095880;28;20362;-74
2023/01/21 18:03:00;;;;;;;2.83;1.83;;;14.30;60.50;;;;;;5095836;28;20040;-76
2023/01/21 18:05:27;;;;;;;6.05;2.42;;;14.30;60.70;;;;;;5096318;28;20043;-74
2023/01/21 18:07:53;;;;;;;4.55;2.38;;;14.20;60.60;;;;;;5078128;28;20051;-75
2023/01/21 18:10:24;;;;;;;5.90;2.20;;;14.20;60.70;;;;;;5095584;28;20347;-74
2023/01/21 18:12:50;;;;;;;10.45;2.20;;;14.30;60.70;;;;;;5095927;28;20040;-74
2023/01/21 18:15:19;;;;;;;3.40;2.00;;;14.20;60.60;;;;;;5095327;28;20086;-74
2023/01/21 18:17:59;;;;;;;3.35;1.63;;;14.20;60.70;;;;;;5095919;28;20044;-76
2023/01/21 18:20:27;;;;;;;2.08;1.80;;;14.20;60.80;;;;;;5096281;28;20406;-76
2023/01/21 18:22:54;;;;;;;2.50;1.63;;;14.20;60.90;;;;;;5089004;28;20402;-76
2023/01/21 18:25:21;;;;;;;4.40;2.00;;;14.20;60.90;;;;;;5057433;28;20121;-76
2023/01/21 18:27:53;;;;;;;5.10;2.00;;;14.20;60.90;;;;;;5075047;28;20088;-76
2023/01/21 18:30:25;;;;;;;4.82;2.35;;;14.20;60.90;;;;;;5076904;28;20455;-76
2023/01/21 18:32:51;;;;;;;6.53;2.53;;;14.10;60.90;;;;;;5075414;28;20048;-76
2023/01/21 18:35:20;;;;;;;3.85;2.17;;;14.00;61.00;;;;;;5075290;28;20055;-76
2023/01/21 18:37:46;;;;;;;5.70;2.22;;;14.00;61.10;;;;;;5074874;28;20052;-76
2023/01/21 18:40:20;;;;;;;5.28;2.35;;;14.00;61.00;;;;;;5075560;28;20407;-75
2023/01/21 18:42:51;;;;;;;2.95;2.20;;;14.00;61.00;;;;;;5075143;28;20057;-75
2023/01/21 18:45:27;;;;;;;2.88;1.98;;;14.00;60.90;;;;;;5057638;28;20052;-78
2023/01/21 18:47:53;;;;;;;3.42;2.60;;;14.00;60.90;;;;;;5075173;28;20079;-78
2023/01/21 18:50:28;;;;;;;4.57;2.30;;;14.00;60.90;;;;;;5074780;28;20045;-77
2023/01/21 18:52:54;;;;;;;3.25;2.28;;;14.00;60.90;;;;;;5074828;28;20044;-77
2023/01/21 18:55:24;;;;;;;2.58;2.20;;;14.00;60.90;;;;;;5074869;28;20082;-76
2023/01/21 18:57:50;;;;;;;3.10;2.42;;;13.90;60.90;;;;;;5074826;28;20037;-76
2023/01/21 19:00:25;;;;;;;3.80;2.38;;;13.90;60.90;;;;;;5074626;28;20458;-76
2023/01/21 19:02:53;;;;;;;3.92;2.45;;;14.00;61.00;;;;;;5057982;28;20455;-77
2023/01/21 19:05:19;;;;;;;2.67;2.08;;;14.00;61.00;;;;;;5057856;28;20060;-75
2023/01/21 19:07:46;;;;;;;6.95;3.00;;;13.90;61.00;;;;;;5075255;28;20044;-77
2023/01/21 19:10:15;;;;;;;3.70;3.10;;;13.90;60.90;;;;;;5074879;28;20079;-79
2023/01/21 19:12:47;;;;;;;4.18;3.03;;;13.90;59.80;;;;;;5057615;28;20127;-79
2023/01/21 19:15:14;;;;;;;3.72;2.80;;;13.90;59.00;;;;;;5082465;28;20036;-76
2023/01/21 19:17:40;;;;;;;5.82;2.58;;;13.80;58.80;;;;;;5083567;28;20033;-78
2023/01/21 19:20:13;;;;;;;6.22;3.13;;;13.80;59.10;;;;;;5091881;28;20047;-76
2023/01/21 19:22:39;;;;;;;6.80;2.80;;;13.80;59.30;;;;;;5076815;28;20094;-77
2023/01/21 19:25:06;;;;;;;7.07;2.33;;;13.70;59.40;;;;;;5095131;28;20080;-78
2023/01/21 19:27:59;;;;;;;8.95;2.97;;;13.70;59.50;;;;;;5096327;28;20438;-79
2023/01/21 19:30:30;;;;;;;4.18;2.63;;;13.70;59.70;;;;;;5021560;28;20471;-75
2023/01/21 19:32:57;;;;;;;5.22;2.80;;;13.60;60.00;;;;;;5087859;28;20032;-74
2023/01/21 19:35:31;;;;;;;9.55;2.92;;;13.60;60.20;;;;;;5070071;28;20035;-77
2023/01/21 19:37:56;;;;;;;4.13;2.55;;;13.60;60.40;;;;;;5086543;28;20449;-75
2023/01/21 19:40:24;;;;;;;7.13;2.83;;;13.60;60.70;;;;;;5087960;28;20064;-76
2023/01/21 19:42:50;;;;;;;5.10;2.45;;;13.50;61.40;;;;;;5088231;28;20044;-78
2023/01/21 19:45:17;;;;;;;4.57;2.72;;;13.50;61.20;;;;;;5069524;28;20040;-73
2023/01/21 19:47:46;;;;;;;5.25;2.53;;;13.30;62.30;;;;;;5077176;28;20083;-75
2023/01/21 19:50:16;;;;;;;3.33;2.33;;;13.30;61.90;;;;;;5089678;28;20074;-75
2023/01/21 19:52:44;;;;;;;6.00;2.90;;;13.30;61.70;;;;;;5082224;28;20145;-76
2023/01/21 19:55:14;;;;;;;8.68;3.53;;;13.30;61.60;;;;;;5118993;28;20059;-76
2023/01/21 19:57:41;;;;;;;4.47;2.38;;;13.30;61.60;;;;;;5097212;28;20035;-74
2023/01/21 20:00:15;;;;;;;3.63;2.80;;;13.30;61.60;;;;;;5091693;28;20047;-74
2023/01/21 20:02:41;;;;;;;3.58;2.47;;;13.30;61.50;;;;;;5080312;28;20055;-74
2023/01/21 20:05:07;;;;;;;3.88;2.67;;;13.30;61.60;;;;;;5096177;28;20122;-76
2023/01/21 20:07:33;;;;;;;4.95;2.65;;;13.10;63.00;;;;;;5088901;28;20157;-76
2023/01/21 20:09:58;;;;;;;7.18;2.97;;;13.10;62.40;;;;;;5084706;28;20478;-76
2023/01/21 20:12:24;;;;;;;5.93;2.58;;;13.20;62.30;;;;;;5102581;28;20118;-75
2023/01/21 20:14:50;;;;;;;5.90;2.58;;;13.10;62.20;;;;;;5083346;28;20107;-76
2023/01/21 20:17:16;;;;;;;4.43;2.70;;;13.10;62.00;;;;;;5087258;28;20082;-75
2023/01/21 20:19:41;;;;;;;6.22;2.90;;;13.20;62.00;;;;;;5086353;28;20044;-76
2023/01/21 20:22:07;;;;;;;6.68;2.75;;;13.10;61.90;;;;;;5085818;28;20043;-76
2023/01/21 20:24:33;;;;;;;4.13;2.72;;;13.10;62.00;;;;;;5088078;28;20055;-74
2023/01/21 20:27:01;;;;;;;5.63;2.33;;;13.00;63.20;;;;;;5085969;28;20049;-76
2023/01/21 20:29:27;;;;;;;13.75;3.60;;;12.90;63.50;;;;;;5086781;28;20052;-76
2023/01/21 20:31:53;;;;;;;3.67;2.60;;;12.90;63.10;;;;;;5087832;28;20055;-77
2023/01/21 20:34:19;;;;;;;3.67;2.42;;;12.90;62.90;;;;;;5084857;28;20089;-73
2023/01/21 20:36:47;;;;;;;4.45;2.70;;;13.00;62.80;;;;;;5075464;28;20484;-76
2023/01/21 20:39:13;;;;;;;4.63;2.60;;;13.00;62.60;;;;;;5086733;28;20607;-75
2023/01/21 20:41:39;;;;;;;5.13;3.08;;;13.00;62.50;;;;;;5099402;28;20194;-73
2023/01/21 20:44:05;;;;;;;3.55;2.13;;;13.00;62.60;;;;;;5092149;28;20044;-76
2023/01/21 20:46:32;;;;;;;2.72;2.17;;;13.00;62.50;;;;;;5050219;28;20120;-75
2023/01/21 20:48:59;;;;;;;3.83;2.33;;;13.00;62.60;;;;;;5090801;28;20036;-74